sensor_id;sensor_type;location;lat;lon;timestamp;pressure;altitude;pressure_sealevel;temperature;humidity
706;BME280;21234;48.690;9.016;2023-05-23T00:00:04;95996.66;;;15.65;100.00
706;BME280;21234;48.690;9.016;2023-05-23T00:02:31;95993.03;;;15.74;100.00
706;BME280;21234;48.690;9.016;2023-05-23T00:04:59;95990.28;;;15.74;100.00
706;BME280;21234;48.690;9.016;2023-05-23T00:07:27;95994.66;;;15.75;100.00
706;BME280;21234;48.690;9.016;2023-05-23T00:09:56;95991.88;;;15.81;100.00
706;BME280;21234;48.690;9.016;2023-05-23T00:12:24;95983.94;;;15.79;100.00
706;BME280;21234;48.690;9.016;2023-05-23T00:14:51;95996.81;;;15.78;100.00
706;BME280;21234;48.690;9.016;2023-05-23T00:17:18;95993.53;;;15.76;100.00
706;BME280;21234;48.690;9.016;2023-05-23T00:19:46;95994.59;;;15.81;100.00
706;BME280;21234;48.690;9.016;2023-05-23T00:22:13;95991.88;;;15.81;100.00
706;BME280;21234;48.690;9.016;2023-05-23T00:24:41;95989.06;;;15.86;100.00
706;BME280;21234;48.690;9.016;2023-05-23T00:27:07;95987.44;;;15.85;100.00
706;BME280;21234;48.690;9.016;2023-05-23T00:29:35;95990.72;;;15.87;100.00
706;BME280;21234;48.690;9.016;2023-05-23T00:32:02;95981.38;;;15.88;100.00
706;BME280;21234;48.690;9.016;2023-05-23T00:34:29;95983.59;;;15.86;100.00
706;BME280;21234;48.690;9.016;2023-05-23T00:36:55;95985.22;;;15.87;100.00
706;BME280;21234;48.690;9.016;2023-05-23T00:39:22;95993.97;;;15.89;100.00
706;BME280;21234;48.690;9.016;2023-05-23T00:41:49;95987.59;;;15.93;100.00
706;BME280;21234;48.690;9.016;2023-05-23T00:44:16;95999.66;;;15.92;100.00
706;BME280;21234;48.690;9.016;2023-05-23T00:46:49;96005.16;;;15.92;100.00
706;BME280;21234;48.690;9.016;2023-05-23T00:49:17;96000.84;;;15.86;100.00
706;BME280;21234;48.690;9.016;2023-05-23T00:51:44;95996.47;;;15.85;100.00
706;BME280;21234;48.690;9.016;2023-05-23T00:54:11;95994.03;;;15.84;100.00
706;BME280;21234;48.690;9.016;2023-05-23T00:56:39;95998.66;;;15.88;100.00
706;BME280;21234;48.690;9.016;2023-05-23T00:59:08;96005.75;;;15.89;100.00
706;BME280;21234;48.690;9.016;2023-05-23T01:01:35;96001.69;;;15.87;100.00
706;BME280;21234;48.690;9.016;2023-05-23T01:04:03;96003.59;;;15.86;100.00
706;BME280;21234;48.690;9.016;2023-05-23T01:06:30;96005.63;;;15.75;100.00
706;BME280;21234;48.690;9.016;2023-05-23T01:08:57;96011.97;;;15.71;100.00
706;BME280;21234;48.690;9.016;2023-05-23T01:11:31;96005.38;;;15.72;100.00
706;BME280;21234;48.690;9.016;2023-05-23T01:14:02;96012.00;;;15.66;100.00
706;BME280;21234;48.690;9.016;2023-05-23T01:16:35;96009.56;;;15.64;100.00
706;BME280;21234;48.690;9.016;2023-05-23T01:19:16;96016.38;;;15.67;100.00
706;BME280;21234;48.690;9.016;2023-05-23T01:21:52;96017.03;;;15.59;100.00
706;BME280;21234;48.690;9.016;2023-05-23T01:24:33;96018.63;;;15.60;100.00
706;BME280;21234;48.690;9.016;2023-05-23T01:27:07;96014.78;;;15.61;100.00
706;BME280;21234;48.690;9.016;2023-05-23T01:29:44;96013.16;;;15.60;100.00
706;BME280;21234;48.690;9.016;2023-05-23T01:32:12;96001.03;;;15.66;100.00
706;BME280;21234;48.690;9.016;2023-05-23T01:34:40;96015.88;;;15.60;100.00
706;BME280;21234;48.690;9.016;2023-05-23T01:37:09;96017.72;;;15.69;100.00
706;BME280;21234;48.690;9.016;2023-05-23T01:39:36;96010.09;;;15.66;100.00
706;BME280;21234;48.690;9.016;2023-05-23T01:42:03;96010.91;;;15.67;100.00
706;BME280;21234;48.690;9.016;2023-05-23T01:44:31;96006.53;;;15.66;100.00
706;BME280;21234;48.690;9.016;2023-05-23T01:47:00;96006.53;;;15.66;100.00
706;BME280;21234;48.690;9.016;2023-05-23T01:49:28;96008.69;;;15.69;100.00
706;BME280;21234;48.690;9.016;2023-05-23T01:51:56;96011.47;;;15.64;100.00
706;BME280;21234;48.690;9.016;2023-05-23T01:54:23;96018.88;;;15.63;100.00
706;BME280;21234;48.690;9.016;2023-05-23T01:56:49;96014.47;;;15.67;100.00
706;BME280;21234;48.690;9.016;2023-05-23T01:59:16;96023.50;;;15.68;100.00
706;BME280;21234;48.690;9.016;2023-05-23T02:01:43;96018.00;;;15.68;100.00
706;BME280;21234;48.690;9.016;2023-05-23T02:04:12;96021.84;;;15.67;100.00
706;BME280;21234;48.690;9.016;2023-05-23T02:06:38;96018.53;;;15.70;100.00
706;BME280;21234;48.690;9.016;2023-05-23T02:09:05;96018.53;;;15.70;100.00
706;BME280;21234;48.690;9.016;2023-05-23T02:11:32;96020.50;;;15.64;100.00
706;BME280;21234;48.690;9.016;2023-05-23T02:13:59;96009.31;;;15.61;100.00
706;BME280;21234;48.690;9.016;2023-05-23T02:16:26;96015.31;;;15.63;100.00
706;BME280;21234;48.690;9.016;2023-05-23T02:18:53;96012.88;;;15.61;100.00
706;BME280;21234;48.690;9.016;2023-05-23T02:21:22;96014.78;;;15.61;100.00
706;BME280;21234;48.690;9.016;2023-05-23T02:23:49;96017.25;;;15.62;100.00
706;BME280;21234;48.690;9.016;2023-05-23T02:26:15;96008.28;;;15.57;100.00
706;BME280;21234;48.690;9.016;2023-05-23T02:28:42;96012.94;;;15.51;100.00
706;BME280;21234;48.690;9.016;2023-05-23T02:31:08;96011.88;;;15.47;100.00
706;BME280;21234;48.690;9.016;2023-05-23T02:33:35;96012.75;;;15.42;100.00
706;BME280;21234;48.690;9.016;2023-05-23T02:36:02;96026.69;;;15.46;100.00
706;BME280;21234;48.690;9.016;2023-05-23T02:38:30;96035.16;;;15.50;100.00
706;BME280;21234;48.690;9.016;2023-05-23T02:40:57;96019.78;;;15.54;100.00
706;BME280;21234;48.690;9.016;2023-05-23T02:43:25;96018.94;;;15.58;100.00
706;BME280;21234;48.690;9.016;2023-05-23T02:45:51;96021.69;;;15.58;100.00
706;BME280;21234;48.690;9.016;2023-05-23T02:48:19;96019.44;;;15.60;100.00
706;BME280;21234;48.690;9.016;2023-05-23T02:50:45;96019.16;;;15.62;100.00
706;BME280;21234;48.690;9.016;2023-05-23T02:53:12;96026.00;;;15.64;100.00
706;BME280;21234;48.690;9.016;2023-05-23T02:55:40;96035.56;;;15.67;100.00
706;BME280;21234;48.690;9.016;2023-05-23T02:58:07;96037.47;;;15.66;100.00
706;BME280;21234;48.690;9.016;2023-05-23T03:00:34;96039.44;;;15.61;100.00
706;BME280;21234;48.690;9.016;2023-05-23T03:03:01;96027.97;;;15.59;100.00
706;BME280;21234;48.690;9.016;2023-05-23T03:05:28;96036.50;;;15.57;100.00
706;BME280;21234;48.690;9.016;2023-05-23T03:07:54;96040.59;;;15.55;100.00
706;BME280;21234;48.690;9.016;2023-05-23T03:10:22;96038.94;;;15.54;100.00
706;BME280;21234;48.690;9.016;2023-05-23T03:12:50;96027.16;;;15.58;100.00
706;BME280;21234;48.690;9.016;2023-05-23T03:15:16;96033.47;;;15.54;100.00
706;BME280;21234;48.690;9.016;2023-05-23T03:17:43;96041.72;;;15.49;100.00
706;BME280;21234;48.690;9.016;2023-05-23T03:20:10;96033.22;;;15.50;100.00
706;BME280;21234;48.690;9.016;2023-05-23T03:22:37;96038.75;;;15.45;100.00
706;BME280;21234;48.690;9.016;2023-05-23T03:25:05;96040.09;;;15.48;100.00
706;BME280;21234;48.690;9.016;2023-05-23T03:27:32;96030.78;;;15.49;100.00
706;BME280;21234;48.690;9.016;2023-05-23T03:30:00;96043.97;;;15.41;100.00
706;BME280;21234;48.690;9.016;2023-05-23T03:32:26;96046.44;;;15.43;100.00
706;BME280;21234;48.690;9.016;2023-05-23T03:34:53;96046.13;;;15.44;100.00
706;BME280;21234;48.690;9.016;2023-05-23T03:37:20;96051.63;;;15.44;100.00
706;BME280;21234;48.690;9.016;2023-05-23T03:39:47;96048.31;;;15.48;100.00
706;BME280;21234;48.690;9.016;2023-05-23T03:42:13;96050.50;;;15.45;100.00
706;BME280;21234;48.690;9.016;2023-05-23T03:44:40;96044.75;;;15.47;100.00
706;BME280;21234;48.690;9.016;2023-05-23T03:47:08;96052.41;;;15.50;100.00
706;BME280;21234;48.690;9.016;2023-05-23T03:49:35;96051.63;;;15.44;100.00
706;BME280;21234;48.690;9.016;2023-05-23T03:52:01;96050.75;;;15.49;100.00
706;BME280;21234;48.690;9.016;2023-05-23T03:54:28;96050.22;;;15.47;100.00
706;BME280;21234;48.690;9.016;2023-05-23T03:56:55;96046.13;;;15.44;100.00
706;BME280;21234;48.690;9.016;2023-05-23T03:59:22;96051.91;;;15.43;100.00
706;BME280;21234;48.690;9.016;2023-05-23T04:01:48;96047.53;;;15.42;100.00
706;BME280;21234;48.690;9.016;2023-05-23T04:04:16;96047.50;;;15.47;100.00
706;BME280;21234;48.690;9.016;2023-05-23T04:06:45;96048.31;;;15.48;100.00
706;BME280;21234;48.690;9.016;2023-05-23T04:09:12;96052.19;;;15.41;100.00
706;BME280;21234;48.690;9.016;2023-05-23T04:11:38;96054.41;;;15.39;100.00
706;BME280;21234;48.690;9.016;2023-05-23T04:14:05;96054.94;;;15.41;100.00
706;BME280;21234;48.690;9.016;2023-05-23T04:16:32;96053.03;;;15.37;100.00
706;BME280;21234;48.690;9.016;2023-05-23T04:19:00;96060.16;;;15.38;100.00
706;BME280;21234;48.690;9.016;2023-05-23T04:21:30;96052.22;;;15.36;100.00
706;BME280;21234;48.690;9.016;2023-05-23T04:23:56;96062.31;;;15.41;100.00
706;BME280;21234;48.690;9.016;2023-05-23T04:26:23;96056.06;;;15.35;100.00
706;BME280;21234;48.690;9.016;2023-05-23T04:28:50;96054.97;;;15.36;100.00
706;BME280;21234;48.690;9.016;2023-05-23T04:31:18;96058.22;;;15.38;100.00
706;BME280;21234;48.690;9.016;2023-05-23T04:33:46;96057.97;;;15.35;100.00
706;BME280;21234;48.690;9.016;2023-05-23T04:36:13;96057.44;;;15.33;100.00
706;BME280;21234;48.690;9.016;2023-05-23T04:38:41;96064.28;;;15.35;100.00
706;BME280;21234;48.690;9.016;2023-05-23T04:41:08;96063.19;;;15.36;100.00
706;BME280;21234;48.690;9.016;2023-05-23T04:43:35;96068.66;;;15.36;100.00
706;BME280;21234;48.690;9.016;2023-05-23T04:46:07;96067.84;;;15.36;100.00
706;BME280;21234;48.690;9.016;2023-05-23T04:48:34;96074.13;;;15.36;100.00
706;BME280;21234;48.690;9.016;2023-05-23T04:51:01;96074.13;;;15.36;100.00
706;BME280;21234;48.690;9.016;2023-05-23T04:53:32;96073.56;;;15.39;100.00
706;BME280;21234;48.690;9.016;2023-05-23T04:56:00;96072.75;;;15.39;100.00
706;BME280;21234;48.690;9.016;2023-05-23T04:58:27;96071.94;;;15.38;100.00
706;BME280;21234;48.690;9.016;2023-05-23T05:00:53;96084.03;;;15.32;100.00
706;BME280;21234;48.690;9.016;2023-05-23T05:03:20;96078.53;;;15.32;100.00
706;BME280;21234;48.690;9.016;2023-05-23T05:05:49;96081.91;;;15.24;100.00
706;BME280;21234;48.690;9.016;2023-05-23T05:08:15;96082.19;;;15.23;100.00
706;BME280;21234;48.690;9.016;2023-05-23T05:10:44;96089.25;;;15.29;100.00
706;BME280;21234;48.690;9.016;2023-05-23T05:13:12;96088.44;;;15.28;100.00
706;BME280;21234;48.690;9.016;2023-05-23T05:15:38;96084.84;;;15.33;100.00
706;BME280;21234;48.690;9.016;2023-05-23T05:18:05;96084.06;;;15.27;100.00
706;BME280;21234;48.690;9.016;2023-05-23T05:20:32;96087.03;;;15.31;100.00
706;BME280;21234;48.690;9.016;2023-05-23T05:22:58;96089.25;;;15.29;100.00
706;BME280;21234;48.690;9.016;2023-05-23T05:25:25;96102.94;;;15.29;100.00
706;BME280;21234;48.690;9.016;2023-05-23T05:27:56;96098.06;;;15.26;100.00
706;BME280;21234;48.690;9.016;2023-05-23T05:30:24;96096.63;;;15.28;100.00
706;BME280;21234;48.690;9.016;2023-05-23T05:32:50;96099.38;;;15.28;100.00
706;BME280;21234;48.690;9.016;2023-05-23T05:35:17;96093.91;;;15.28;100.00
706;BME280;21234;48.690;9.016;2023-05-23T05:37:43;96103.53;;;15.26;100.00
706;BME280;21234;48.690;9.016;2023-05-23T05:40:11;96104.66;;;15.20;100.00
706;BME280;21234;48.690;9.016;2023-05-23T05:42:37;96105.72;;;15.24;100.00
706;BME280;21234;48.690;9.016;2023-05-23T05:45:05;96115.34;;;15.21;100.00
706;BME280;21234;48.690;9.016;2023-05-23T05:47:33;96111.22;;;15.24;100.00
706;BME280;21234;48.690;9.016;2023-05-23T05:50:01;96110.94;;;15.25;100.00
706;BME280;21234;48.690;9.016;2023-05-23T05:52:27;96103.81;;;15.24;100.00
706;BME280;21234;48.690;9.016;2023-05-23T05:54:54;96106.84;;;15.23;100.00
706;BME280;21234;48.690;9.016;2023-05-23T05:57:22;96102.19;;;15.23;100.00
706;BME280;21234;48.690;9.016;2023-05-23T05:59:48;96112.56;;;15.26;100.00
706;BME280;21234;48.690;9.016;2023-05-23T06:02:15;96108.47;;;15.24;100.00
706;BME280;21234;48.690;9.016;2023-05-23T06:04:43;96100.47;;;15.27;100.00
706;BME280;21234;48.690;9.016;2023-05-23T06:07:10;96101.28;;;15.28;100.00
706;BME280;21234;48.690;9.016;2023-05-23T06:09:36;96109.00;;;15.26;100.00
706;BME280;21234;48.690;9.016;2023-05-23T06:12:03;96104.34;;;15.26;100.00
706;BME280;21234;48.690;9.016;2023-05-23T06:14:30;96119.09;;;15.30;100.00
706;BME280;21234;48.690;9.016;2023-05-23T06:16:57;96113.06;;;15.28;100.00
706;BME280;21234;48.690;9.016;2023-05-23T06:19:24;96123.22;;;15.28;100.00
706;BME280;21234;48.690;9.016;2023-05-23T06:21:52;96121.34;;;15.23;100.00
706;BME280;21234;48.690;9.016;2023-05-23T06:24:18;96123.53;;;15.26;100.00
706;BME280;21234;48.690;9.016;2023-05-23T06:26:45;96113.06;;;15.28;100.00
706;BME280;21234;48.690;9.016;2023-05-23T06:29:12;96113.59;;;15.30;100.00
706;BME280;21234;48.690;9.016;2023-05-23T06:31:38;96116.06;;;15.32;100.00
706;BME280;21234;48.690;9.016;2023-05-23T06:34:05;96118.50;;;15.38;100.00
706;BME280;21234;48.690;9.016;2023-05-23T06:36:32;96114.66;;;15.39;100.00
706;BME280;21234;48.690;9.016;2023-05-23T06:39:00;96127.78;;;15.42;100.00
706;BME280;21234;48.690;9.016;2023-05-23T06:41:26;96123.94;;;15.43;100.00
706;BME280;21234;48.690;9.016;2023-05-23T06:43:53;96133.50;;;15.46;100.00
706;BME280;21234;48.690;9.016;2023-05-23T06:46:20;96132.69;;;15.45;100.00
706;BME280;21234;48.690;9.016;2023-05-23T06:48:46;96138.75;;;15.42;100.00
706;BME280;21234;48.690;9.016;2023-05-23T06:51:13;96138.44;;;15.49;100.00
706;BME280;21234;48.690;9.016;2023-05-23T06:53:39;96138.72;;;15.48;100.00
706;BME280;21234;48.690;9.016;2023-05-23T06:56:07;96142.84;;;15.45;100.00
706;BME280;21234;48.690;9.016;2023-05-23T06:58:34;96145.28;;;15.46;100.00
706;BME280;21234;48.690;9.016;2023-05-23T07:01:01;96143.66;;;15.45;100.00
706;BME280;21234;48.690;9.016;2023-05-23T07:03:27;96150.25;;;15.39;100.00
706;BME280;21234;48.690;9.016;2023-05-23T07:05:54;96153.59;;;15.31;100.00
706;BME280;21234;48.690;9.016;2023-05-23T07:08:21;96159.16;;;15.21;100.00
706;BME280;21234;48.690;9.016;2023-05-23T07:10:47;96159.69;;;15.23;100.00
706;BME280;21234;48.690;9.016;2023-05-23T07:13:15;96162.75;;;15.11;100.00
706;BME280;21234;48.690;9.016;2023-05-23T07:15:42;96164.94;;;15.09;100.00
706;BME280;21234;48.690;9.016;2023-05-23T07:18:09;96176.47;;;15.01;100.00
706;BME280;21234;48.690;9.016;2023-05-23T07:20:35;96175.66;;;14.96;100.00
706;BME280;21234;48.690;9.016;2023-05-23T07:23:02;96175.97;;;14.94;100.00
706;BME280;21234;48.690;9.016;2023-05-23T07:25:29;96175.72;;;14.86;100.00
706;BME280;21234;48.690;9.016;2023-05-23T07:27:55;96176.84;;;14.79;100.00
706;BME280;21234;48.690;9.016;2023-05-23T07:30:23;96177.94;;;14.78;100.00
706;BME280;21234;48.690;9.016;2023-05-23T07:32:50;96182.31;;;14.74;100.00
706;BME280;21234;48.690;9.016;2023-05-23T07:35:17;96178.22;;;14.72;100.00
706;BME280;21234;48.690;9.016;2023-05-23T07:37:48;96183.41;;;14.73;100.00
706;BME280;21234;48.690;9.016;2023-05-23T07:40:15;96187.53;;;14.66;100.00
706;BME280;21234;48.690;9.016;2023-05-23T07:42:41;96189.72;;;14.64;100.00
706;BME280;21234;48.690;9.016;2023-05-23T07:45:08;96192.19;;;14.70;100.00
706;BME280;21234;48.690;9.016;2023-05-23T07:47:37;96197.13;;;14.63;100.00
706;BME280;21234;48.690;9.016;2023-05-23T07:50:04;96187.81;;;14.69;100.00
706;BME280;21234;48.690;9.016;2023-05-23T07:52:31;96192.72;;;14.72;100.00
706;BME280;21234;48.690;9.016;2023-05-23T07:54:58;96194.91;;;14.75;100.00
706;BME280;21234;48.690;9.016;2023-05-23T07:57:25;96189.72;;;14.69;100.00
706;BME280;21234;48.690;9.016;2023-05-23T07:59:52;96192.47;;;14.69;100.00
706;BME280;21234;48.690;9.016;2023-05-23T08:02:19;96199.00;;;14.78;100.00
706;BME280;21234;48.690;9.016;2023-05-23T08:04:47;96186.16;;;14.73;100.00
706;BME280;21234;48.690;9.016;2023-05-23T08:07:15;96194.66;;;14.72;100.00
706;BME280;21234;48.690;9.016;2023-05-23T08:09:41;96199.00;;;14.78;100.00
706;BME280;21234;48.690;9.016;2023-05-23T08:12:08;96197.09;;;14.73;100.00
706;BME280;21234;48.690;9.016;2023-05-23T08:14:35;96199.31;;;14.66;100.00
706;BME280;21234;48.690;9.016;2023-05-23T08:17:02;96196.03;;;14.64;100.00
706;BME280;21234;48.690;9.016;2023-05-23T08:19:28;96205.59;;;14.67;100.00
706;BME280;21234;48.690;9.016;2023-05-23T08:21:56;96209.13;;;14.72;100.00
706;BME280;21234;48.690;9.016;2023-05-23T08:24:23;96209.41;;;14.76;100.00
706;BME280;21234;48.690;9.016;2023-05-23T08:26:51;96208.88;;;14.74;100.00
706;BME280;21234;48.690;9.016;2023-05-23T08:29:17;96214.88;;;14.71;100.00
706;BME280;21234;48.690;9.016;2023-05-23T08:31:44;96217.91;;;14.64;100.00
706;BME280;21234;48.690;9.016;2023-05-23T08:34:11;96223.41;;;14.59;100.00
706;BME280;21234;48.690;9.016;2023-05-23T08:36:38;96218.44;;;14.66;100.00
706;BME280;21234;48.690;9.016;2023-05-23T08:39:08;96220.63;;;14.74;100.00
706;BME280;21234;48.690;9.016;2023-05-23T08:41:36;96227.47;;;14.77;100.00
706;BME280;21234;48.690;9.016;2023-05-23T08:44:02;96229.66;;;14.85;100.00
706;BME280;21234;48.690;9.016;2023-05-23T08:46:31;96229.66;;;14.85;100.00
706;BME280;21234;48.690;9.016;2023-05-23T08:48:59;96238.16;;;14.73;100.00
706;BME280;21234;48.690;9.016;2023-05-23T08:51:26;96236.00;;;14.60;100.00
706;BME280;21234;48.690;9.016;2023-05-23T08:53:53;96231.03;;;14.62;100.00
706;BME280;21234;48.690;9.016;2023-05-23T08:56:22;96239.25;;;14.67;100.00
706;BME280;21234;48.690;9.016;2023-05-23T08:58:50;96241.44;;;14.70;100.00
706;BME280;21234;48.690;9.016;2023-05-23T09:01:19;96251.28;;;14.66;100.00
706;BME280;21234;48.690;9.016;2023-05-23T09:03:46;96246.06;;;14.80;100.00
706;BME280;21234;48.690;9.016;2023-05-23T09:06:14;96249.09;;;14.78;100.00
706;BME280;21234;48.690;9.016;2023-05-23T09:08:42;96250.44;;;14.86;100.00
706;BME280;21234;48.690;9.016;2023-05-23T09:11:10;96247.38;;;14.98;100.00
706;BME280;21234;48.690;9.016;2023-05-23T09:13:39;96247.91;;;15.05;100.00
706;BME280;21234;48.690;9.016;2023-05-23T09:16:09;96245.97;;;15.10;100.00
706;BME280;21234;48.690;9.016;2023-05-23T09:18:38;96253.34;;;15.15;100.00
706;BME280;21234;48.690;9.016;2023-05-23T09:21:06;96250.59;;;15.25;100.00
706;BME280;21234;48.690;9.016;2023-05-23T09:23:33;96250.59;;;15.25;98.43
706;BME280;21234;48.690;9.016;2023-05-23T09:26:01;96256.06;;;15.25;99.68
706;BME280;21234;48.690;9.016;2023-05-23T09:28:29;96252.50;;;15.25;99.28
706;BME280;21234;48.690;9.016;2023-05-23T09:31:00;96258.81;;;15.25;99.69
706;BME280;21234;48.690;9.016;2023-05-23T09:33:35;96260.47;;;15.21;100.00
706;BME280;21234;48.690;9.016;2023-05-23T09:36:03;96265.97;;;15.11;99.02
706;BME280;21234;48.690;9.016;2023-05-23T09:38:30;96267.56;;;15.22;98.97
706;BME280;21234;48.690;9.016;2023-05-23T09:40:58;96268.13;;;15.24;96.21
706;BME280;21234;48.690;9.016;2023-05-23T09:43:25;96267.53;;;15.27;97.06
706;BME280;21234;48.690;9.016;2023-05-23T09:45:52;96270.25;;;15.37;97.48
706;BME280;21234;48.690;9.016;2023-05-23T09:48:27;96267.78;;;15.36;95.22
706;BME280;21234;48.690;9.016;2023-05-23T09:50:54;96268.31;;;15.43;94.34
706;BME280;21234;48.690;9.016;2023-05-23T09:53:20;96260.00;;;15.63;94.43
706;BME280;21234;48.690;9.016;2023-05-23T09:55:48;96267.91;;;15.70;91.66
706;BME280;21234;48.690;9.016;2023-05-23T09:58:18;96266.22;;;15.79;91.71
706;BME280;21234;48.690;9.016;2023-05-23T10:00:45;96267.75;;;15.95;90.41
706;BME280;21234;48.690;9.016;2023-05-23T10:03:12;96266.00;;;16.15;91.72
706;BME280;21234;48.690;9.016;2023-05-23T10:05:44;96272.81;;;16.22;91.47
706;BME280;21234;48.690;9.016;2023-05-23T10:08:13;96272.28;;;16.15;89.36
706;BME280;21234;48.690;9.016;2023-05-23T10:13:42;96270.72;;;16.04;89.15
706;BME280;21234;48.690;9.016;2023-05-23T10:16:15;96283.63;;;15.98;87.32
706;BME280;21234;48.690;9.016;2023-05-23T10:18:44;96281.47;;;15.95;87.60
706;BME280;21234;48.690;9.016;2023-05-23T10:21:17;96275.97;;;15.95;87.69
706;BME280;21234;48.690;9.016;2023-05-23T10:23:45;96279.22;;;16.02;86.90
706;BME280;21234;48.690;9.016;2023-05-23T10:26:13;96278.88;;;16.14;88.00
706;BME280;21234;48.690;9.016;2023-05-23T10:28:41;96268.06;;;16.28;86.66
706;BME280;21234;48.690;9.016;2023-05-23T10:31:08;96270.38;;;16.50;87.36
706;BME280;21234;48.690;9.016;2023-05-23T10:33:40;96274.66;;;16.61;87.11
706;BME280;21234;48.690;9.016;2023-05-23T10:36:13;96268.34;;;16.60;84.10
706;BME280;21234;48.690;9.016;2023-05-23T10:38:48;96269.56;;;16.49;83.13
706;BME280;21234;48.690;9.016;2023-05-23T10:41:22;96262.19;;;16.44;83.45
706;BME280;21234;48.690;9.016;2023-05-23T10:43:56;96266.25;;;16.52;81.88
706;BME280;21234;48.690;9.016;2023-05-23T10:46:49;96265.59;;;16.65;79.87
706;BME280;21234;48.690;9.016;2023-05-23T10:49:16;96270.31;;;16.89;80.70
706;BME280;21234;48.690;9.016;2023-05-23T10:51:47;96262.19;;;17.02;79.00
706;BME280;21234;48.690;9.016;2023-05-23T10:54:14;96267.44;;;16.99;76.64
706;BME280;21234;48.690;9.016;2023-05-23T10:56:44;96260.16;;;17.13;76.56
706;BME280;21234;48.690;9.016;2023-05-23T10:59:19;96262.03;;;17.18;77.00
706;BME280;21234;48.690;9.016;2023-05-23T11:01:49;96261.59;;;17.29;76.77
706;BME280;21234;48.690;9.016;2023-05-23T11:04:24;96263.59;;;17.24;74.29
706;BME280;21234;48.690;9.016;2023-05-23T11:06:53;96263.59;;;17.24;77.28
706;BME280;21234;48.690;9.016;2023-05-23T11:09:20;96267.97;;;17.01;79.79
706;BME280;21234;48.690;9.016;2023-05-23T11:12:00;96274.75;;;16.85;79.82
706;BME280;21234;48.690;9.016;2023-05-23T11:14:33;96285.81;;;16.74;80.29
706;BME280;21234;48.690;9.016;2023-05-23T11:17:15;96285.81;;;16.74;79.20
706;BME280;21234;48.690;9.016;2023-05-23T11:19:55;96282.88;;;16.66;80.74
706;BME280;21234;48.690;9.016;2023-05-23T11:22:27;96284.81;;;16.65;81.43
706;BME280;21234;48.690;9.016;2023-05-23T11:24:56;96280.97;;;16.61;79.24
706;BME280;21234;48.690;9.016;2023-05-23T11:27:27;96286.34;;;16.76;80.67
706;BME280;21234;48.690;9.016;2023-05-23T11:29:58;96287.84;;;16.64;78.48
706;BME280;21234;48.690;9.016;2023-05-23T11:32:27;96281.78;;;16.62;79.59
706;BME280;21234;48.690;9.016;2023-05-23T11:34:54;96284.59;;;16.57;79.27
706;BME280;21234;48.690;9.016;2023-05-23T11:37:21;96282.94;;;16.56;77.96
706;BME280;21234;48.690;9.016;2023-05-23T11:39:50;96283.97;;;16.65;80.05
706;BME280;21234;48.690;9.016;2023-05-23T11:42:16;96281.50;;;16.63;77.60
706;BME280;21234;48.690;9.016;2023-05-23T11:44:43;96278.78;;;16.92;77.14
706;BME280;21234;48.690;9.016;2023-05-23T11:47:10;96275.78;;;17.18;75.35
706;BME280;21234;48.690;9.016;2023-05-23T11:49:38;96261.50;;;17.16;74.97
706;BME280;21234;48.690;9.016;2023-05-23T11:52:05;96275.00;;;17.12;74.60
706;BME280;21234;48.690;9.016;2023-05-23T11:54:32;96270.66;;;17.06;74.38
706;BME280;21234;48.690;9.016;2023-05-23T11:57:00;96265.72;;;17.08;75.54
706;BME280;21234;48.690;9.016;2023-05-23T11:59:28;96261.97;;;17.23;73.23
706;BME280;21234;48.690;9.016;2023-05-23T12:01:55;96264.06;;;17.31;72.94
706;BME280;21234;48.690;9.016;2023-05-23T12:04:21;96257.81;;;17.49;74.48
706;BME280;21234;48.690;9.016;2023-05-23T12:06:50;96269.63;;;17.50;73.34
706;BME280;21234;48.690;9.016;2023-05-23T12:09:17;96263.72;;;17.37;73.67
706;BME280;21234;48.690;9.016;2023-05-23T12:11:43;96261.78;;;17.38;74.83
706;BME280;21234;48.690;9.016;2023-05-23T12:14:15;96264.06;;;17.31;76.22
706;BME280;21234;48.690;9.016;2023-05-23T12:16:42;96257.22;;;17.28;75.63
706;BME280;21234;48.690;9.016;2023-05-23T12:19:10;96256.84;;;17.16;77.02
706;BME280;21234;48.690;9.016;2023-05-23T12:21:44;96257.28;;;17.23;74.55
706;BME280;21234;48.690;9.016;2023-05-23T12:24:15;96260.72;;;17.34;76.85
706;BME280;21234;48.690;9.016;2023-05-23T12:26:46;96267.44;;;17.23;72.54
706;BME280;21234;48.690;9.016;2023-05-23T12:29:15;96265.06;;;17.16;72.49
706;BME280;21234;48.690;9.016;2023-05-23T12:31:42;96266.00;;;17.06;73.37
706;BME280;21234;48.690;9.016;2023-05-23T12:34:10;96256.59;;;17.12;72.67
706;BME280;21234;48.690;9.016;2023-05-23T12:36:36;96262.09;;;17.12;72.53
706;BME280;21234;48.690;9.016;2023-05-23T12:39:04;96252.91;;;17.22;69.82
706;BME280;21234;48.690;9.016;2023-05-23T12:41:32;96249.63;;;16.96;69.78
706;BME280;21234;48.690;9.016;2023-05-23T12:43:59;96250.91;;;17.28;75.44
706;BME280;21234;48.690;9.016;2023-05-23T12:46:27;96241.00;;;17.93;70.61
706;BME280;21234;48.690;9.016;2023-05-23T12:48:54;96230.28;;;17.92;68.33
706;BME280;21234;48.690;9.016;2023-05-23T12:51:21;96231.41;;;17.91;68.37
706;BME280;21234;48.690;9.016;2023-05-23T12:53:48;96241.88;;;17.70;69.47
706;BME280;21234;48.690;9.016;2023-05-23T12:56:14;96234.63;;;17.55;69.36
706;BME280;21234;48.690;9.016;2023-05-23T12:58:41;96236.41;;;17.46;68.45
706;BME280;21234;48.690;9.016;2023-05-23T13:01:08;96236.66;;;17.50;70.03
706;BME280;21234;48.690;9.016;2023-05-23T13:03:36;96240.34;;;17.40;70.58
706;BME280;21234;48.690;9.016;2023-05-23T13:06:03;96242.09;;;17.31;68.15
706;BME280;21234;48.690;9.016;2023-05-23T13:08:31;96238.75;;;17.34;69.73
706;BME280;21234;48.690;9.016;2023-05-23T13:10:57;96240.03;;;17.41;67.36
706;BME280;21234;48.690;9.016;2023-05-23T13:13:25;96239.81;;;17.57;67.88
706;BME280;21234;48.690;9.016;2023-05-23T13:15:52;96232.97;;;18.16;66.24
706;BME280;21234;48.690;9.016;2023-05-23T13:18:18;96234.50;;;18.73;68.94
706;BME280;21234;48.690;9.016;2023-05-23T13:20:46;96241.06;;;19.04;63.33